• Join FlightAware (Why Join?)
  • Login
  • US Flag 
02:24PM EDT


 

Airport Tracker/Info


-or-


 

Live Flight TrackerFlight Track Log ✈ CES2307 ✈ 22-Jul-2013 ✈ ZLXY / XIY - ZGKL / KWL

Flight Track Log - Related Links

Times and Time Zones

All times are in EDT time to prevent confusion due to time zone crossing. See the CES2307 flight status page for this flight to view local times or setup timezone preferences in your user account.

Time Position Orientation Groundspeed Altitude Reporting Facility
EDT Latitude Longitude Course Direction KTS MPH feet Rate Location/Type
10:06AM 32.3416 109.0676 173° South  Level Estimated
10:07AM 32.2413 109.0823 173° South  Level Estimated
10:08AM 32.1410 109.0969 173° South  Level Estimated
10:09AM 32.0407 109.1115 173° South  Level Estimated
10:10AM 31.9405 109.1261 173° South  Level Estimated
10:11AM 31.8402 109.1407 173° South  Level Estimated
10:12AM 31.7399 109.1552 173° South  Level Estimated
10:13AM 31.6396 109.1697 173° South  Level Estimated
10:14AM 31.5393 109.1841 173° South  Level Estimated
10:15AM 31.4390 109.1985 173° South  Level Estimated
10:16AM 31.3387 109.2129 173° South  Level Estimated
10:17AM 31.2384 109.2273 173° South  Level Estimated
10:18AM 31.1381 109.2416 173° South  Level Estimated
10:19AM 31.0378 109.2559 173° South  Level Estimated
10:20AM 30.9375 109.2702 173° South  Level Estimated
10:21AM 30.8372 109.2844 173° South  Level Estimated
10:22AM 30.7369 109.2986 173° South  Level Estimated
10:23AM 30.6366 109.3128 173° South  Level Estimated
10:24AM 30.5363 109.3270 173° South  Level Estimated
10:25AM 30.4360 109.3411 173° South  Level Estimated
10:26AM 30.3356 109.3552 173° South  Level Estimated
10:27AM 30.2353 109.3692 173° South  Level Estimated
10:28AM 30.1350 109.3833 173° South  Level Estimated
10:29AM 30.0347 109.3973 173° South  Level Estimated
10:30AM 29.9344 109.4113 173° South  Level Estimated
10:31AM 29.8341 109.4252 173° South  Level Estimated
10:32AM 29.7337 109.4391 173° South  Level Estimated
10:33AM 29.6334 109.4530 173° South  Level Estimated
10:34AM 29.5331 109.4669 173° South  Level Estimated
10:35AM 29.4328 109.4807 173° South  Level Estimated
10:36AM 29.3324 109.4945 173° South  Level Estimated
10:37AM 29.2321 109.5083 173° South  Level Estimated
10:38AM 29.1318 109.5221 173° South  Level Estimated
10:39AM 29.0315 109.5358 173° South  Level Estimated
10:40AM 28.9311 109.5495 173° South  Level Estimated
10:41AM 28.8308 109.5632 173° South  Level Estimated
10:42AM 28.7304 109.5768 173° South  Level Estimated
10:43AM 28.6301 109.5905 173° South  Level Estimated
10:44AM 28.5298 109.6041 173° South  Level Estimated
10:45AM 28.4294 109.6176 173° South  Level Estimated
10:46AM 28.3291 109.6312 173° South  Level Estimated
10:47AM 28.2288 109.6447 173° South  Level Estimated
10:48AM 28.1284 109.6582 173° South  Level Estimated
10:49AM 28.0281 109.6717 173° South  Level Estimated
10:50AM 27.9277 109.6851 173° South  Level Estimated
10:51AM 27.8274 109.6985 173° South  Level Estimated
10:52AM 27.7270 109.7120 173° South  Level Estimated
10:53AM 27.6267 109.7253 173° South  Level Estimated
10:54AM 27.5263 109.7387 173° South  Level Estimated
10:55AM 27.4260 109.7520 173° South  Level Estimated
10:56AM 27.3256 109.7653 173° South  Level Estimated
10:57AM 27.2253 109.7786 173° South  Level Estimated
10:58AM 27.1249 109.7918 173° South  Level Estimated
10:59AM 27.0245 109.8050 173° South  Level Estimated
11:00AM 26.9242 109.8182 173° South  Level Estimated
11:01AM 26.8238 109.8314 173° South  Level Estimated
11:02AM 26.7234 109.8446 173° South  Level Estimated
11:03AM 26.6231 109.8577 173° South  Level Estimated
11:04AM 26.5227 109.8708 173° South  Level Estimated
11:05AM 26.4322 109.8826 173° South  Level Estimated
11:06AM 26.3417 109.8944 173° South  Level Estimated
11:07AM 26.2511 109.9062 173° South  Level Estimated
11:08AM 26.1606 109.9179 173° South  Level Estimated
11:09AM 26.0494 109.9324 173° South  Level Estimated
11:10AM 25.9381 109.9467 173° South  Level Estimated
11:11AM 25.8269 109.9611 173° South  Level Estimated
11:12AM 25.7156 109.9754 173° South  Level Estimated
11:13AM 25.6043 109.9897 173° South  Level Estimated
11:14AM 25.4931 110.0040 173° South  Level Estimated
11:15AM 25.3818 110.0183 173° South  Level Estimated
11:16AM 25.2705 110.0325 173° South  Level Estimated
11:17AM 25.2181 110.0392 173° South  Level Estimated
11:18AM 25.2181 110.0392 214° Southwest  Level Estimated
11:19AM 25.2181 110.0392 214° Southwest  Level Estimated
11:20AM 25.2181 110.0392 214° Southwest  Level Estimated
11:21AM 25.2181 110.0392 214° Southwest  Level Estimated
11:22AM 25.2181 110.0392 214° Southwest  Level Estimated
11:23AM 25.2181 110.0392 214° Southwest  Level Estimated
11:24AM 25.2181 110.0392 214° Southwest  Level Estimated